sensor_id;sensor_type;location;lat;lon;timestamp;P1;durP1;ratioP1;P2;durP2;ratioP2
28934;SDS011;16044;52.726;-2.108;2023-11-19T00:01:51;42.97;;;6.72;;
28934;SDS011;16044;52.726;-2.108;2023-11-19T00:04:21;44.50;;;6.05;;
28934;SDS011;16044;52.726;-2.108;2023-11-19T00:06:54;36.38;;;5.60;;
28934;SDS011;16044;52.726;-2.108;2023-11-19T00:09:30;32.30;;;5.75;;
28934;SDS011;16044;52.726;-2.108;2023-11-19T00:12:04;40.97;;;6.00;;
28934;SDS011;16044;52.726;-2.108;2023-11-19T00:14:35;41.58;;;5.68;;
28934;SDS011;16044;52.726;-2.108;2023-11-19T00:17:06;39.75;;;6.15;;
28934;SDS011;16044;52.726;-2.108;2023-11-19T00:19:36;40.05;;;5.93;;
28934;SDS011;16044;52.726;-2.108;2023-11-19T00:22:09;43.92;;;6.32;;
28934;SDS011;16044;52.726;-2.108;2023-11-19T00:24:40;43.38;;;6.45;;
28934;SDS011;16044;52.726;-2.108;2023-11-19T00:27:11;39.83;;;6.22;;
28934;SDS011;16044;52.726;-2.108;2023-11-19T00:29:42;43.25;;;6.35;;
28934;SDS011;16044;52.726;-2.108;2023-11-19T00:32:13;51.17;;;6.28;;
28934;SDS011;16044;52.726;-2.108;2023-11-19T00:34:43;42.50;;;6.00;;
28934;SDS011;16044;52.726;-2.108;2023-11-19T00:37:17;41.22;;;6.40;;
28934;SDS011;16044;52.726;-2.108;2023-11-19T00:39:47;43.55;;;6.38;;
28934;SDS011;16044;52.726;-2.108;2023-11-19T00:42:18;42.05;;;6.53;;
28934;SDS011;16044;52.726;-2.108;2023-11-19T00:44:51;41.92;;;6.75;;
28934;SDS011;16044;52.726;-2.108;2023-11-19T00:47:22;37.85;;;6.30;;
28934;SDS011;16044;52.726;-2.108;2023-11-19T00:49:52;38.60;;;6.32;;
28934;SDS011;16044;52.726;-2.108;2023-11-19T00:52:25;42.85;;;5.80;;
28934;SDS011;16044;52.726;-2.108;2023-11-19T00:54:55;37.85;;;5.93;;
28934;SDS011;16044;52.726;-2.108;2023-11-19T00:57:26;38.50;;;5.53;;
28934;SDS011;16044;52.726;-2.108;2023-11-19T00:59:57;35.78;;;5.85;;
28934;SDS011;16044;52.726;-2.108;2023-11-19T01:02:27;36.63;;;5.63;;
28934;SDS011;16044;52.726;-2.108;2023-11-19T01:04:58;44.33;;;6.60;;
28934;SDS011;16044;52.726;-2.108;2023-11-19T01:07:31;40.25;;;6.30;;
28934;SDS011;16044;52.726;-2.108;2023-11-19T01:10:01;40.30;;;6.35;;
28934;SDS011;16044;52.726;-2.108;2023-11-19T01:12:32;36.47;;;5.82;;
28934;SDS011;16044;52.726;-2.108;2023-11-19T01:15:03;43.10;;;5.22;;
28934;SDS011;16044;52.726;-2.108;2023-11-19T01:17:36;33.22;;;5.55;;
28934;SDS011;16044;52.726;-2.108;2023-11-19T01:20:18;36.30;;;5.38;;
28934;SDS011;16044;52.726;-2.108;2023-11-19T01:22:51;37.30;;;5.40;;
28934;SDS011;16044;52.726;-2.108;2023-11-19T01:25:23;40.85;;;5.93;;
28934;SDS011;16044;52.726;-2.108;2023-11-19T01:27:53;35.85;;;5.22;;
28934;SDS011;16044;52.726;-2.108;2023-11-19T01:30:25;39.60;;;5.55;;
28934;SDS011;16044;52.726;-2.108;2023-11-19T01:32:55;33.63;;;5.18;;
28934;SDS011;16044;52.726;-2.108;2023-11-19T01:35:26;35.92;;;5.75;;
28934;SDS011;16044;52.726;-2.108;2023-11-19T01:37:59;35.88;;;6.00;;
28934;SDS011;16044;52.726;-2.108;2023-11-19T01:40:29;36.15;;;5.25;;
28934;SDS011;16044;52.726;-2.108;2023-11-19T01:42:59;40.17;;;5.68;;
28934;SDS011;16044;52.726;-2.108;2023-11-19T01:45:30;31.30;;;5.53;;
28934;SDS011;16044;52.726;-2.108;2023-11-19T01:48:02;29.45;;;4.75;;
28934;SDS011;16044;52.726;-2.108;2023-11-19T01:50:33;32.53;;;5.40;;
28934;SDS011;16044;52.726;-2.108;2023-11-19T01:53:07;30.50;;;4.10;;
28934;SDS011;16044;52.726;-2.108;2023-11-19T01:55:37;35.97;;;5.93;;
28934;SDS011;16044;52.726;-2.108;2023-11-19T01:58:08;35.85;;;5.25;;
28934;SDS011;16044;52.726;-2.108;2023-11-19T02:00:39;36.33;;;5.30;;
28934;SDS011;16044;52.726;-2.108;2023-11-19T02:03:09;34.38;;;5.35;;
28934;SDS011;16044;52.726;-2.108;2023-11-19T02:05:41;30.05;;;4.78;;
28934;SDS011;16044;52.726;-2.108;2023-11-19T02:08:16;29.60;;;4.57;;
28934;SDS011;16044;52.726;-2.108;2023-11-19T02:10:47;27.58;;;4.80;;
28934;SDS011;16044;52.726;-2.108;2023-11-19T02:13:18;24.88;;;3.47;;
28934;SDS011;16044;52.726;-2.108;2023-11-19T02:15:49;27.85;;;4.15;;
28934;SDS011;16044;52.726;-2.108;2023-11-19T02:18:20;28.90;;;4.53;;
28934;SDS011;16044;52.726;-2.108;2023-11-19T02:20:54;25.92;;;4.10;;
28934;SDS011;16044;52.726;-2.108;2023-11-19T02:23:28;25.55;;;3.60;;
28934;SDS011;16044;52.726;-2.108;2023-11-19T02:26:02;26.92;;;4.20;;
28934;SDS011;16044;52.726;-2.108;2023-11-19T02:28:46;25.75;;;4.10;;
28934;SDS011;16044;52.726;-2.108;2023-11-19T02:31:16;28.52;;;4.70;;
28934;SDS011;16044;52.726;-2.108;2023-11-19T02:33:47;24.48;;;3.97;;
28934;SDS011;16044;52.726;-2.108;2023-11-19T02:36:17;31.33;;;5.00;;
28934;SDS011;16044;52.726;-2.108;2023-11-19T02:38:48;25.13;;;4.13;;
28934;SDS011;16044;52.726;-2.108;2023-11-19T02:41:18;27.60;;;4.50;;
28934;SDS011;16044;52.726;-2.108;2023-11-19T02:43:51;24.50;;;4.55;;
28934;SDS011;16044;52.726;-2.108;2023-11-19T02:46:21;32.55;;;5.47;;
28934;SDS011;16044;52.726;-2.108;2023-11-19T02:48:53;26.85;;;4.22;;
28934;SDS011;16044;52.726;-2.108;2023-11-19T02:51:23;27.33;;;4.50;;
28934;SDS011;16044;52.726;-2.108;2023-11-19T02:53:54;28.00;;;4.40;;
28934;SDS011;16044;52.726;-2.108;2023-11-19T02:56:25;34.58;;;5.07;;
28934;SDS011;16044;52.726;-2.108;2023-11-19T02:59:03;26.02;;;4.03;;
28934;SDS011;16044;52.726;-2.108;2023-11-19T03:01:53;29.35;;;4.47;;
28934;SDS011;16044;52.726;-2.108;2023-11-19T03:04:24;24.65;;;3.88;;
28934;SDS011;16044;52.726;-2.108;2023-11-19T03:06:55;30.63;;;4.40;;
28934;SDS011;16044;52.726;-2.108;2023-11-19T03:09:25;27.08;;;4.13;;
28934;SDS011;16044;52.726;-2.108;2023-11-19T03:11:56;29.90;;;4.63;;
28934;SDS011;16044;52.726;-2.108;2023-11-19T03:14:29;32.63;;;5.13;;
28934;SDS011;16044;52.726;-2.108;2023-11-19T03:16:59;34.72;;;4.50;;
28934;SDS011;16044;52.726;-2.108;2023-11-19T03:19:30;28.70;;;4.18;;
28934;SDS011;16044;52.726;-2.108;2023-11-19T03:22:01;26.25;;;4.18;;
28934;SDS011;16044;52.726;-2.108;2023-11-19T03:24:31;31.17;;;4.82;;
28934;SDS011;16044;52.726;-2.108;2023-11-19T03:27:03;31.17;;;4.20;;
28934;SDS011;16044;52.726;-2.108;2023-11-19T03:29:36;30.98;;;5.00;;
28934;SDS011;16044;52.726;-2.108;2023-11-19T03:32:07;32.47;;;4.97;;
28934;SDS011;16044;52.726;-2.108;2023-11-19T03:34:38;31.95;;;5.07;;
28934;SDS011;16044;52.726;-2.108;2023-11-19T03:37:10;25.52;;;4.82;;
28934;SDS011;16044;52.726;-2.108;2023-11-19T03:39:43;29.00;;;4.55;;
28934;SDS011;16044;52.726;-2.108;2023-11-19T03:42:13;30.27;;;4.53;;
28934;SDS011;16044;52.726;-2.108;2023-11-19T03:44:46;25.77;;;4.60;;
28934;SDS011;16044;52.726;-2.108;2023-11-19T03:47:17;31.08;;;4.40;;
28934;SDS011;16044;52.726;-2.108;2023-11-19T03:49:48;21.50;;;3.45;;
28934;SDS011;16044;52.726;-2.108;2023-11-19T03:52:18;26.13;;;4.22;;
28934;SDS011;16044;52.726;-2.108;2023-11-19T03:54:49;31.55;;;4.88;;
28934;SDS011;16044;52.726;-2.108;2023-11-19T03:57:19;22.25;;;3.50;;
28934;SDS011;16044;52.726;-2.108;2023-11-19T03:59:52;29.27;;;4.38;;
28934;SDS011;16044;52.726;-2.108;2023-11-19T04:04:57;25.75;;;3.88;;
28934;SDS011;16044;52.726;-2.108;2023-11-19T04:07:27;29.88;;;4.20;;
28934;SDS011;16044;52.726;-2.108;2023-11-19T04:09:58;29.73;;;4.80;;
28934;SDS011;16044;52.726;-2.108;2023-11-19T04:12:29;32.05;;;4.35;;
28934;SDS011;16044;52.726;-2.108;2023-11-19T04:15:02;26.23;;;4.18;;
28934;SDS011;16044;52.726;-2.108;2023-11-19T04:17:34;29.35;;;4.55;;
28934;SDS011;16044;52.726;-2.108;2023-11-19T04:20:05;34.80;;;5.25;;
28934;SDS011;16044;52.726;-2.108;2023-11-19T04:22:41;37.80;;;5.25;;
28934;SDS011;16044;52.726;-2.108;2023-11-19T04:25:11;33.38;;;4.97;;
28934;SDS011;16044;52.726;-2.108;2023-11-19T04:27:43;38.38;;;5.32;;
28934;SDS011;16044;52.726;-2.108;2023-11-19T04:30:17;40.58;;;5.75;;
28934;SDS011;16044;52.726;-2.108;2023-11-19T04:32:48;39.78;;;5.65;;
28934;SDS011;16044;52.726;-2.108;2023-11-19T04:35:18;37.72;;;5.72;;
28934;SDS011;16044;52.726;-2.108;2023-11-19T04:37:49;31.83;;;4.72;;
28934;SDS011;16044;52.726;-2.108;2023-11-19T04:40:19;38.50;;;5.53;;
28934;SDS011;16044;52.726;-2.108;2023-11-19T04:42:50;32.80;;;5.07;;
28934;SDS011;16044;52.726;-2.108;2023-11-19T04:45:23;39.67;;;5.68;;
28934;SDS011;16044;52.726;-2.108;2023-11-19T04:47:56;31.58;;;5.30;;
28934;SDS011;16044;52.726;-2.108;2023-11-19T04:50:27;33.50;;;4.60;;
28934;SDS011;16044;52.726;-2.108;2023-11-19T04:52:57;39.95;;;5.28;;
28934;SDS011;16044;52.726;-2.108;2023-11-19T04:55:27;32.15;;;4.97;;
28934;SDS011;16044;52.726;-2.108;2023-11-19T04:57:58;30.83;;;4.40;;
28934;SDS011;16044;52.726;-2.108;2023-11-19T05:00:31;36.55;;;4.47;;
28934;SDS011;16044;52.726;-2.108;2023-11-19T05:03:02;28.85;;;5.10;;
28934;SDS011;16044;52.726;-2.108;2023-11-19T05:05:33;32.17;;;4.55;;
28934;SDS011;16044;52.726;-2.108;2023-11-19T05:08:03;30.88;;;4.65;;
28934;SDS011;16044;52.726;-2.108;2023-11-19T05:10:34;26.90;;;4.05;;
28934;SDS011;16044;52.726;-2.108;2023-11-19T05:13:05;31.55;;;4.60;;
28934;SDS011;16044;52.726;-2.108;2023-11-19T05:15:38;32.28;;;4.00;;
28934;SDS011;16044;52.726;-2.108;2023-11-19T05:18:08;25.15;;;4.53;;
28934;SDS011;16044;52.726;-2.108;2023-11-19T05:20:36;26.17;;;4.22;;
28934;SDS011;16044;52.726;-2.108;2023-11-19T05:23:06;25.85;;;4.05;;
28934;SDS011;16044;52.726;-2.108;2023-11-19T05:25:47;25.02;;;3.75;;
28934;SDS011;16044;52.726;-2.108;2023-11-19T05:28:17;22.52;;;3.65;;
28934;SDS011;16044;52.726;-2.108;2023-11-19T05:30:50;25.50;;;4.13;;
28934;SDS011;16044;52.726;-2.108;2023-11-19T05:33:21;21.23;;;3.35;;
28934;SDS011;16044;52.726;-2.108;2023-11-19T05:35:51;21.48;;;4.15;;
28934;SDS011;16044;52.726;-2.108;2023-11-19T05:38:21;22.08;;;3.20;;
28934;SDS011;16044;52.726;-2.108;2023-11-19T05:40:52;24.77;;;3.90;;
28934;SDS011;16044;52.726;-2.108;2023-11-19T05:43:22;19.45;;;2.97;;
28934;SDS011;16044;52.726;-2.108;2023-11-19T05:45:55;22.65;;;3.83;;
28934;SDS011;16044;52.726;-2.108;2023-11-19T05:48:26;22.27;;;3.30;;
28934;SDS011;16044;52.726;-2.108;2023-11-19T05:50:56;23.23;;;4.00;;
28934;SDS011;16044;52.726;-2.108;2023-11-19T05:53:27;19.15;;;3.22;;
28934;SDS011;16044;52.726;-2.108;2023-11-19T05:55:57;25.45;;;3.63;;
28934;SDS011;16044;52.726;-2.108;2023-11-19T05:58:30;26.48;;;3.70;;
28934;SDS011;16044;52.726;-2.108;2023-11-19T06:01:03;26.25;;;3.78;;
28934;SDS011;16044;52.726;-2.108;2023-11-19T06:03:35;25.70;;;3.85;;
28934;SDS011;16044;52.726;-2.108;2023-11-19T06:06:06;22.58;;;4.15;;
28934;SDS011;16044;52.726;-2.108;2023-11-19T06:08:38;23.88;;;3.67;;
28934;SDS011;16044;52.726;-2.108;2023-11-19T06:11:09;20.65;;;3.60;;
28934;SDS011;16044;52.726;-2.108;2023-11-19T06:13:45;30.15;;;4.25;;
28934;SDS011;16044;52.726;-2.108;2023-11-19T06:16:20;20.10;;;3.40;;
28934;SDS011;16044;52.726;-2.108;2023-11-19T06:18:51;20.52;;;3.20;;
28934;SDS011;16044;52.726;-2.108;2023-11-19T06:21:21;20.27;;;3.47;;
28934;SDS011;16044;52.726;-2.108;2023-11-19T06:23:52;18.38;;;3.25;;
28934;SDS011;16044;52.726;-2.108;2023-11-19T06:26:22;21.58;;;4.22;;
28934;SDS011;16044;52.726;-2.108;2023-11-19T06:28:52;23.40;;;3.72;;
28934;SDS011;16044;52.726;-2.108;2023-11-19T06:31:25;23.90;;;3.63;;
28934;SDS011;16044;52.726;-2.108;2023-11-19T06:33:56;21.42;;;3.47;;
28934;SDS011;16044;52.726;-2.108;2023-11-19T06:36:26;22.27;;;3.33;;
28934;SDS011;16044;52.726;-2.108;2023-11-19T06:38:57;22.73;;;4.22;;
28934;SDS011;16044;52.726;-2.108;2023-11-19T06:41:27;23.98;;;3.60;;
28934;SDS011;16044;52.726;-2.108;2023-11-19T06:43:58;28.92;;;3.58;;
28934;SDS011;16044;52.726;-2.108;2023-11-19T06:46:31;26.40;;;3.97;;
28934;SDS011;16044;52.726;-2.108;2023-11-19T06:49:02;23.90;;;3.78;;
28934;SDS011;16044;52.726;-2.108;2023-11-19T06:51:34;28.50;;;3.50;;
28934;SDS011;16044;52.726;-2.108;2023-11-19T06:54:05;21.70;;;3.72;;
28934;SDS011;16044;52.726;-2.108;2023-11-19T06:56:35;24.77;;;3.53;;
28934;SDS011;16044;52.726;-2.108;2023-11-19T06:59:05;25.95;;;4.03;;
28934;SDS011;16044;52.726;-2.108;2023-11-19T07:01:39;21.80;;;3.55;;
28934;SDS011;16044;52.726;-2.108;2023-11-19T07:04:10;21.52;;;3.63;;
28934;SDS011;16044;52.726;-2.108;2023-11-19T07:06:41;26.63;;;3.72;;
28934;SDS011;16044;52.726;-2.108;2023-11-19T07:09:11;21.75;;;3.92;;
28934;SDS011;16044;52.726;-2.108;2023-11-19T07:11:41;25.80;;;4.30;;
28934;SDS011;16044;52.726;-2.108;2023-11-19T07:14:13;31.10;;;4.25;;
28934;SDS011;16044;52.726;-2.108;2023-11-19T07:16:46;22.45;;;3.70;;
28934;SDS011;16044;52.726;-2.108;2023-11-19T07:19:17;25.20;;;4.18;;
28934;SDS011;16044;52.726;-2.108;2023-11-19T07:21:47;23.45;;;3.88;;
28934;SDS011;16044;52.726;-2.108;2023-11-19T07:24:17;26.55;;;3.90;;
28934;SDS011;16044;52.726;-2.108;2023-11-19T07:26:48;26.60;;;3.97;;
28934;SDS011;16044;52.726;-2.108;2023-11-19T07:29:18;29.45;;;4.88;;
28934;SDS011;16044;52.726;-2.108;2023-11-19T07:31:54;33.53;;;4.53;;
28934;SDS011;16044;52.726;-2.108;2023-11-19T07:34:25;23.10;;;4.22;;
28934;SDS011;16044;52.726;-2.108;2023-11-19T07:36:55;29.40;;;4.05;;
28934;SDS011;16044;52.726;-2.108;2023-11-19T07:39:29;23.52;;;4.22;;
28934;SDS011;16044;52.726;-2.108;2023-11-19T07:42:01;24.92;;;4.22;;
28934;SDS011;16044;52.726;-2.108;2023-11-19T07:44:31;33.78;;;5.18;;
28934;SDS011;16044;52.726;-2.108;2023-11-19T07:47:04;32.63;;;4.57;;
28934;SDS011;16044;52.726;-2.108;2023-11-19T07:49:35;28.17;;;3.70;;
28934;SDS011;16044;52.726;-2.108;2023-11-19T07:52:05;30.40;;;4.55;;
28934;SDS011;16044;52.726;-2.108;2023-11-19T07:54:39;26.40;;;4.78;;
28934;SDS011;16044;52.726;-2.108;2023-11-19T07:57:09;19.85;;;3.65;;
28934;SDS011;16044;52.726;-2.108;2023-11-19T07:59:39;21.88;;;3.60;;
28934;SDS011;16044;52.726;-2.108;2023-11-19T08:02:12;20.48;;;3.42;;
28934;SDS011;16044;52.726;-2.108;2023-11-19T08:04:43;18.60;;;3.42;;
28934;SDS011;16044;52.726;-2.108;2023-11-19T08:07:17;21.13;;;3.15;;
28934;SDS011;16044;52.726;-2.108;2023-11-19T08:09:48;19.90;;;2.83;;
28934;SDS011;16044;52.726;-2.108;2023-11-19T08:12:19;19.40;;;2.97;;
28934;SDS011;16044;52.726;-2.108;2023-11-19T08:14:49;17.75;;;2.63;;
28934;SDS011;16044;52.726;-2.108;2023-11-19T08:17:22;16.13;;;2.70;;
28934;SDS011;16044;52.726;-2.108;2023-11-19T08:19:53;18.05;;;2.75;;
28934;SDS011;16044;52.726;-2.108;2023-11-19T08:22:23;18.48;;;2.55;;
28934;SDS011;16044;52.726;-2.108;2023-11-19T08:24:53;16.55;;;2.45;;
28934;SDS011;16044;52.726;-2.108;2023-11-19T08:27:24;22.58;;;3.05;;
28934;SDS011;16044;52.726;-2.108;2023-11-19T08:29:55;18.08;;;2.85;;
28934;SDS011;16044;52.726;-2.108;2023-11-19T08:32:28;22.13;;;2.88;;
28934;SDS011;16044;52.726;-2.108;2023-11-19T08:34:59;16.15;;;2.67;;
28934;SDS011;16044;52.726;-2.108;2023-11-19T08:37:29;14.07;;;2.58;;
28934;SDS011;16044;52.726;-2.108;2023-11-19T08:39:59;16.63;;;2.80;;
28934;SDS011;16044;52.726;-2.108;2023-11-19T08:42:31;18.30;;;2.60;;
28934;SDS011;16044;52.726;-2.108;2023-11-19T08:45:01;17.77;;;3.20;;
28934;SDS011;16044;52.726;-2.108;2023-11-19T08:47:35;14.52;;;3.05;;
28934;SDS011;16044;52.726;-2.108;2023-11-19T08:50:07;20.17;;;3.08;;
28934;SDS011;16044;52.726;-2.108;2023-11-19T08:52:38;18.98;;;2.95;;
28934;SDS011;16044;52.726;-2.108;2023-11-19T08:55:09;20.45;;;2.97;;
28934;SDS011;16044;52.726;-2.108;2023-11-19T08:57:40;13.90;;;2.40;;
28934;SDS011;16044;52.726;-2.108;2023-11-19T09:00:11;20.33;;;3.30;;
28934;SDS011;16044;52.726;-2.108;2023-11-19T09:02:45;17.75;;;2.95;;
28934;SDS011;16044;52.726;-2.108;2023-11-19T09:05:15;15.15;;;3.03;;
28934;SDS011;16044;52.726;-2.108;2023-11-19T09:07:46;15.05;;;2.67;;
28934;SDS011;16044;52.726;-2.108;2023-11-19T09:10:16;13.00;;;2.25;;
28934;SDS011;16044;52.726;-2.108;2023-11-19T09:12:47;16.00;;;2.90;;
28934;SDS011;16044;52.726;-2.108;2023-11-19T09:15:17;13.60;;;2.20;;
28934;SDS011;16044;52.726;-2.108;2023-11-19T09:17:50;15.48;;;2.75;;
28934;SDS011;16044;52.726;-2.108;2023-11-19T09:20:21;17.70;;;2.88;;
28934;SDS011;16044;52.726;-2.108;2023-11-19T09:22:51;12.70;;;2.30;;
28934;SDS011;16044;52.726;-2.108;2023-11-19T09:25:21;18.73;;;2.97;;
28934;SDS011;16044;52.726;-2.108;2023-11-19T09:27:52;15.68;;;3.08;;
28934;SDS011;16044;52.726;-2.108;2023-11-19T09:30:22;15.70;;;2.78;;
28934;SDS011;16044;52.726;-2.108;2023-11-19T09:32:55;17.63;;;3.22;;
28934;SDS011;16044;52.726;-2.108;2023-11-19T09:35:26;14.88;;;2.85;;
28934;SDS011;16044;52.726;-2.108;2023-11-19T09:37:58;14.80;;;2.67;;
28934;SDS011;16044;52.726;-2.108;2023-11-19T09:40:31;15.13;;;2.22;;
28934;SDS011;16044;52.726;-2.108;2023-11-19T09:43:01;14.43;;;2.47;;
28934;SDS011;16044;52.726;-2.108;2023-11-19T09:45:32;16.83;;;2.83;;
28934;SDS011;16044;52.726;-2.108;2023-11-19T09:48:19;14.45;;;2.35;;
28934;SDS011;16044;52.726;-2.108;2023-11-19T09:50:49;12.02;;;2.20;;
28934;SDS011;16044;52.726;-2.108;2023-11-19T09:53:21;14.55;;;2.47;;
28934;SDS011;16044;52.726;-2.108;2023-11-19T09:55:52;15.63;;;2.72;;
28934;SDS011;16044;52.726;-2.108;2023-11-19T09:58:23;14.15;;;2.38;;
28934;SDS011;16044;52.726;-2.108;2023-11-19T10:00:53;22.10;;;2.92;;
28934;SDS011;16044;52.726;-2.108;2023-11-19T10:03:47;17.83;;;3.08;;
28934;SDS011;16044;52.726;-2.108;2023-11-19T10:06:20;21.60;;;2.90;;
28934;SDS011;16044;52.726;-2.108;2023-11-19T10:08:54;23.17;;;3.00;;
28934;SDS011;16044;52.726;-2.108;2023-11-19T10:11:26;15.27;;;2.85;;
28934;SDS011;16044;52.726;-2.108;2023-11-19T10:13:56;19.27;;;2.72;;
28934;SDS011;16044;52.726;-2.108;2023-11-19T10:16:28;14.70;;;2.70;;
28934;SDS011;16044;52.726;-2.108;2023-11-19T10:19:03;13.57;;;2.30;;
28934;SDS011;16044;52.726;-2.108;2023-11-19T10:21:33;19.92;;;3.25;;
28934;SDS011;16044;52.726;-2.108;2023-11-19T10:24:04;18.10;;;2.65;;
28934;SDS011;16044;52.726;-2.108;2023-11-19T10:26:35;21.92;;;3.20;;
28934;SDS011;16044;52.726;-2.108;2023-11-19T10:29:06;15.55;;;2.80;;
28934;SDS011;16044;52.726;-2.108;2023-11-19T10:31:36;19.52;;;3.05;;
28934;SDS011;16044;52.726;-2.108;2023-11-19T10:34:23;18.17;;;3.03;;
28934;SDS011;16044;52.726;-2.108;2023-11-19T10:36:56;21.40;;;3.13;;
28934;SDS011;16044;52.726;-2.108;2023-11-19T10:39:31;16.38;;;2.78;;
28934;SDS011;16044;52.726;-2.108;2023-11-19T10:42:22;22.80;;;3.08;;
28934;SDS011;16044;52.726;-2.108;2023-11-19T10:44:53;15.23;;;2.30;;
28934;SDS011;16044;52.726;-2.108;2023-11-19T10:47:23;19.85;;;2.78;;
28934;SDS011;16044;52.726;-2.108;2023-11-19T10:50:02;16.67;;;2.38;;
28934;SDS011;16044;52.726;-2.108;2023-11-19T10:52:34;15.03;;;2.33;;
28934;SDS011;16044;52.726;-2.108;2023-11-19T10:55:06;11.32;;;1.70;;
28934;SDS011;16044;52.726;-2.108;2023-11-19T10:57:42;12.38;;;1.67;;
28934;SDS011;16044;52.726;-2.108;2023-11-19T11:00:16;11.85;;;1.63;;
28934;SDS011;16044;52.726;-2.108;2023-11-19T11:02:52;7.65;;;1.27;;
28934;SDS011;16044;52.726;-2.108;2023-11-19T11:05:32;9.75;;;1.80;;
28934;SDS011;16044;52.726;-2.108;2023-11-19T11:08:04;9.30;;;1.35;;
28934;SDS011;16044;52.726;-2.108;2023-11-19T11:10:39;7.40;;;1.58;;
28934;SDS011;16044;52.726;-2.108;2023-11-19T11:13:16;6.75;;;1.63;;
28934;SDS011;16044;52.726;-2.108;2023-11-19T11:15:48;6.88;;;1.95;;
28934;SDS011;16044;52.726;-2.108;2023-11-19T11:18:21;6.85;;;1.40;;
28934;SDS011;16044;52.726;-2.108;2023-11-19T11:21:00;7.43;;;1.38;;
28934;SDS011;16044;52.726;-2.108;2023-11-19T11:23:50;6.18;;;1.05;;
28934;SDS011;16044;52.726;-2.108;2023-11-19T11:29:55;5.35;;;0.88;;
28934;SDS011;16044;52.726;-2.108;2023-11-19T11:32:39;5.20;;;0.93;;
28934;SDS011;16044;52.726;-2.108;2023-11-19T11:35:19;5.90;;;1.10;;
28934;SDS011;16044;52.726;-2.108;2023-11-19T11:38:04;4.22;;;0.90;;
28934;SDS011;16044;52.726;-2.108;2023-11-19T11:40:37;6.40;;;1.20;;
28934;SDS011;16044;52.726;-2.108;2023-11-19T11:43:17;5.88;;;1.30;;
28934;SDS011;16044;52.726;-2.108;2023-11-19T11:49:27;4.88;;;0.98;;
28934;SDS011;16044;52.726;-2.108;2023-11-19T11:52:00;6.53;;;1.80;;
28934;SDS011;16044;52.726;-2.108;2023-11-19T11:54:33;5.03;;;1.30;;
28934;SDS011;16044;52.726;-2.108;2023-11-19T11:57:06;4.47;;;1.00;;
28934;SDS011;16044;52.726;-2.108;2023-11-19T11:59:46;6.25;;;1.20;;
28934;SDS011;16044;52.726;-2.108;2023-11-19T12:02:20;4.88;;;1.40;;
28934;SDS011;16044;52.726;-2.108;2023-11-19T12:04:52;4.90;;;1.08;;
28934;SDS011;16044;52.726;-2.108;2023-11-19T12:07:23;3.38;;;0.90;;
28934;SDS011;16044;52.726;-2.108;2023-11-19T12:10:05;3.83;;;0.63;;
28934;SDS011;16044;52.726;-2.108;2023-11-19T12:12:39;3.50;;;0.65;;
28934;SDS011;16044;52.726;-2.108;2023-11-19T12:15:10;5.55;;;1.05;;
28934;SDS011;16044;52.726;-2.108;2023-11-19T12:17:50;3.15;;;0.82;;
28934;SDS011;16044;52.726;-2.108;2023-11-19T12:20:21;3.28;;;0.75;;
28934;SDS011;16044;52.726;-2.108;2023-11-19T12:22:56;4.82;;;1.15;;
28934;SDS011;16044;52.726;-2.108;2023-11-19T12:25:29;3.85;;;0.90;;
28934;SDS011;16044;52.726;-2.108;2023-11-19T12:28:04;2.55;;;0.70;;
28934;SDS011;16044;52.726;-2.108;2023-11-19T12:30:35;1.73;;;0.70;;
28934;SDS011;16044;52.726;-2.108;2023-11-19T12:33:07;3.30;;;0.75;;
28934;SDS011;16044;52.726;-2.108;2023-11-19T12:35:39;3.28;;;0.90;;
28934;SDS011;16044;52.726;-2.108;2023-11-19T12:38:18;2.92;;;0.70;;
28934;SDS011;16044;52.726;-2.108;2023-11-19T12:43:39;2.55;;;0.88;;
28934;SDS011;16044;52.726;-2.108;2023-11-19T12:46:18;2.10;;;0.63;;
28934;SDS011;16044;52.726;-2.108;2023-11-19T12:48:50;3.10;;;0.60;;
28934;SDS011;16044;52.726;-2.108;2023-11-19T12:51:21;4.00;;;0.80;;
28934;SDS011;16044;52.726;-2.108;2023-11-19T12:53:52;4.90;;;0.90;;
28934;SDS011;16044;52.726;-2.108;2023-11-19T12:56:27;2.33;;;0.65;;
28934;SDS011;16044;52.726;-2.108;2023-11-19T12:59:01;1.50;;;0.40;;
28934;SDS011;16044;52.726;-2.108;2023-11-19T13:01:41;3.45;;;0.60;;
28934;SDS011;16044;52.726;-2.108;2023-11-19T13:04:15;1.75;;;0.57;;
28934;SDS011;16044;52.726;-2.108;2023-11-19T13:06:47;2.58;;;0.50;;
28934;SDS011;16044;52.726;-2.108;2023-11-19T13:09:23;1.23;;;0.45;;
28934;SDS011;16044;52.726;-2.108;2023-11-19T13:11:57;2.63;;;0.70;;
28934;SDS011;16044;52.726;-2.108;2023-11-19T13:14:35;3.42;;;0.80;;
28934;SDS011;16044;52.726;-2.108;2023-11-19T13:17:09;2.97;;;0.60;;
28934;SDS011;16044;52.726;-2.108;2023-11-19T13:19:43;1.88;;;0.60;;
28934;SDS011;16044;52.726;-2.108;2023-11-19T13:22:17;2.10;;;0.60;;
28934;SDS011;16044;52.726;-2.108;2023-11-19T13:24:48;1.38;;;0.40;;
28934;SDS011;16044;52.726;-2.108;2023-11-19T13:27:21;1.27;;;0.38;;
28934;SDS011;16044;52.726;-2.108;2023-11-19T13:29:51;1.48;;;0.40;;
28934;SDS011;16044;52.726;-2.108;2023-11-19T13:32:21;2.97;;;0.50;;
28934;SDS011;16044;52.726;-2.108;2023-11-19T13:34:52;2.08;;;0.22;;
28934;SDS011;16044;52.726;-2.108;2023-11-19T13:37:23;1.90;;;0.30;;
28934;SDS011;16044;52.726;-2.108;2023-11-19T13:39:54;5.15;;;0.40;;
28934;SDS011;16044;52.726;-2.108;2023-11-19T13:42:26;2.53;;;0.40;;
28934;SDS011;16044;52.726;-2.108;2023-11-19T13:44:57;0.63;;;0.20;;
28934;SDS011;16044;52.726;-2.108;2023-11-19T13:47:27;3.40;;;0.30;;
28934;SDS011;16044;52.726;-2.108;2023-11-19T13:49:57;1.50;;;0.30;;
28934;SDS011;16044;52.726;-2.108;2023-11-19T13:52:28;2.90;;;0.45;;
28934;SDS011;16044;52.726;-2.108;2023-11-19T13:54:58;2.20;;;0.40;;
28934;SDS011;16044;52.726;-2.108;2023-11-19T13:57:32;3.13;;;0.45;;
28934;SDS011;16044;52.726;-2.108;2023-11-19T14:00:03;6.28;;;1.30;;
28934;SDS011;16044;52.726;-2.108;2023-11-19T14:02:40;5.75;;;1.08;;
28934;SDS011;16044;52.726;-2.108;2023-11-19T14:05:11;6.97;;;1.10;;
28934;SDS011;16044;52.726;-2.108;2023-11-19T14:07:42;4.80;;;1.13;;
28934;SDS011;16044;52.726;-2.108;2023-11-19T14:10:15;5.90;;;1.08;;
28934;SDS011;16044;52.726;-2.108;2023-11-19T14:12:48;4.28;;;1.00;;
28934;SDS011;16044;52.726;-2.108;2023-11-19T14:15:19;8.45;;;1.23;;
28934;SDS011;16044;52.726;-2.108;2023-11-19T14:17:49;3.65;;;0.95;;
28934;SDS011;16044;52.726;-2.108;2023-11-19T14:20:20;4.97;;;1.00;;
28934;SDS011;16044;52.726;-2.108;2023-11-19T14:22:51;6.28;;;1.05;;
28934;SDS011;16044;52.726;-2.108;2023-11-19T14:25:21;4.80;;;0.75;;
28934;SDS011;16044;52.726;-2.108;2023-11-19T14:27:52;7.05;;;1.00;;
28934;SDS011;16044;52.726;-2.108;2023-11-19T14:30:23;5.38;;;1.02;;
28934;SDS011;16044;52.726;-2.108;2023-11-19T14:32:53;6.30;;;1.13;;
28934;SDS011;16044;52.726;-2.108;2023-11-19T14:35:24;5.60;;;0.90;;
28934;SDS011;16044;52.726;-2.108;2023-11-19T14:37:57;4.93;;;0.82;;
28934;SDS011;16044;52.726;-2.108;2023-11-19T14:40:31;5.80;;;0.82;;
28934;SDS011;16044;52.726;-2.108;2023-11-19T14:43:07;4.68;;;1.10;;
28934;SDS011;16044;52.726;-2.108;2023-11-19T14:45:38;6.07;;;1.02;;
28934;SDS011;16044;52.726;-2.108;2023-11-19T14:48:15;6.32;;;0.90;;
28934;SDS011;16044;52.726;-2.108;2023-11-19T14:50:47;5.80;;;0.90;;
28934;SDS011;16044;52.726;-2.108;2023-11-19T14:53:18;9.65;;;1.08;;
28934;SDS011;16044;52.726;-2.108;2023-11-19T14:55:49;3.30;;;0.73;;
28934;SDS011;16044;52.726;-2.108;2023-11-19T14:58:22;4.30;;;1.02;;
28934;SDS011;16044;52.726;-2.108;2023-11-19T15:00:52;3.53;;;0.75;;
28934;SDS011;16044;52.726;-2.108;2023-11-19T15:03:23;4.45;;;1.00;;
28934;SDS011;16044;52.726;-2.108;2023-11-19T15:05:53;5.03;;;1.23;;
28934;SDS011;16044;52.726;-2.108;2023-11-19T15:08:26;6.15;;;1.13;;